Time;durP1;ratioP1;P1;durP2;ratioP2;P2;SDS_P1;SDS_P2;PMS_P1;PMS_P2;Temp;Humidity;BMP_temperature;BMP_pressure;BME280_temperature;BME280_humidity;BME280_pressure;Samples;Min_cycle;Max_cycle;Signal;HPM_P1;HPM_P2
2021/09/02 00:00:45;;;;;;;2.63;1.80;;;25.30;50.70;;;;;;5024782;28;20100;-52
2021/09/02 00:03:10;;;;;;;2.53;1.65;;;25.30;50.70;;;;;;5019411;28;20044;-57
2021/09/02 00:05:36;;;;;;;2.13;1.50;;;25.30;50.80;;;;;;5022029;28;20029;-58
2021/09/02 00:08:02;;;;;;;2.10;1.40;;;25.30;50.80;;;;;;5015777;28;20135;-58
2021/09/02 00:10:28;;;;;;;3.00;1.80;;;25.20;50.80;;;;;;5020423;28;20037;-59
2021/09/02 00:12:53;;;;;;;2.72;1.58;;;25.20;50.80;;;;;;5026917;28;20029;-60
2021/09/02 00:15:19;;;;;;;3.17;1.70;;;25.20;50.90;;;;;;5013412;28;20078;-58
2021/09/02 00:17:45;;;;;;;2.60;1.60;;;25.10;50.90;;;;;;5023543;28;20030;-50
2021/09/02 00:20:11;;;;;;;2.67;1.95;;;25.10;51.00;;;;;;5027989;28;20033;-59
2021/09/02 00:22:36;;;;;;;2.75;1.90;;;25.10;51.00;;;;;;5026736;28;20033;-57
2021/09/02 00:25:03;;;;;;;2.05;1.50;;;25.10;51.10;;;;;;5017845;28;20481;-52
2021/09/02 00:27:28;;;;;;;2.60;1.60;;;25.10;51.10;;;;;;5013208;28;20128;-59
2021/09/02 00:29:54;;;;;;;2.30;1.58;;;25.10;51.20;;;;;;5020407;28;20144;-53
2021/09/02 00:32:20;;;;;;;2.25;1.50;;;25.00;51.10;;;;;;5009723;28;20033;-58
2021/09/02 00:34:45;;;;;;;2.17;1.50;;;25.00;51.20;;;;;;5012452;28;20026;-58
2021/09/02 00:37:11;;;;;;;2.42;1.70;;;25.00;51.20;;;;;;5021784;28;20548;-59
2021/09/02 00:39:37;;;;;;;2.13;1.58;;;25.00;51.30;;;;;;5014079;28;20115;-56
2021/09/02 00:42:03;;;;;;;2.58;1.60;;;24.90;51.30;;;;;;5022361;28;20037;-58
2021/09/02 00:44:47;;;;;;;2.10;1.50;;;24.90;51.30;;;;;;5021588;28;20030;-54
2021/09/02 00:47:14;;;;;;;1.90;1.40;;;24.80;51.40;;;;;;5014847;28;20048;-58
2021/09/02 00:49:41;;;;;;;2.00;1.50;;;24.80;51.40;;;;;;5023621;28;20021;-59
2021/09/02 00:52:15;;;;;;;2.60;1.55;;;24.80;51.40;;;;;;5019094;28;20335;-60
2021/09/02 00:54:45;;;;;;;2.20;1.50;;;24.80;51.40;;;;;;5023249;28;20041;-52
2021/09/02 00:57:12;;;;;;;2.25;1.58;;;24.80;51.50;;;;;;5018725;28;20524;-56
2021/09/02 00:59:39;;;;;;;2.00;1.40;;;24.80;51.50;;;;;;5019553;28;20025;-56
2021/09/02 01:02:05;;;;;;;2.83;1.80;;;24.80;51.50;;;;;;5020255;28;20597;-54
2021/09/02 01:04:30;;;;;;;2.47;1.40;;;24.80;51.50;;;;;;5023485;28;20036;-55
2021/09/02 01:06:57;;;;;;;2.05;1.50;;;24.80;51.60;;;;;;5023237;28;20446;-55
2021/09/02 01:09:24;;;;;;;2.30;1.60;;;24.70;51.50;;;;;;5026821;28;20045;-55
2021/09/02 01:11:50;;;;;;;2.50;1.70;;;24.70;51.60;;;;;;5017034;28;20069;-59
2021/09/02 01:14:17;;;;;;;2.38;1.60;;;24.70;51.60;;;;;;5023379;28;20422;-54
2021/09/02 01:16:45;;;;;;;1.90;1.42;;;24.70;52.10;;;;;;5024273;28;20434;-58
2021/09/02 01:19:11;;;;;;;1.88;1.33;;;24.70;51.60;;;;;;5024666;28;20075;-51
2021/09/02 01:21:37;;;;;;;1.95;1.35;;;24.70;51.60;;;;;;5014579;28;20073;-57
2021/09/02 01:24:02;;;;;;;2.72;1.60;;;24.70;51.70;;;;;;5014012;28;20053;-58
2021/09/02 01:26:28;;;;;;;2.00;1.45;;;24.60;51.60;;;;;;5024985;28;20671;-50
2021/09/02 01:28:54;;;;;;;2.53;1.70;;;24.60;51.70;;;;;;5021872;28;20033;-59
2021/09/02 01:31:20;;;;;;;2.45;1.70;;;24.60;51.70;;;;;;5010780;28;20030;-55
2021/09/02 01:33:47;;;;;;;1.50;1.20;;;24.60;51.70;;;;;;5024680;28;20045;-58
2021/09/02 01:36:13;;;;;;;1.58;1.23;;;24.60;51.70;;;;;;5019518;28;20462;-52
2021/09/02 01:38:39;;;;;;;2.08;1.60;;;24.60;51.70;;;;;;5020940;28;20029;-51
2021/09/02 01:41:05;;;;;;;2.15;1.35;;;24.50;51.70;;;;;;5024929;28;20458;-54
2021/09/02 01:43:30;;;;;;;1.80;1.10;;;24.60;51.80;;;;;;5024343;28;20045;-57
2021/09/02 01:45:56;;;;;;;2.00;1.40;;;24.50;51.70;;;;;;5013505;28;20457;-58
2021/09/02 01:48:22;;;;;;;2.10;1.38;;;24.50;51.70;;;;;;5024754;28;20061;-54
2021/09/02 01:50:47;;;;;;;2.00;1.40;;;24.50;51.80;;;;;;5025249;28;20069;-54
2021/09/02 01:53:15;;;;;;;1.98;1.40;;;24.50;51.80;;;;;;5022759;28;20053;-59
2021/09/02 01:55:42;;;;;;;2.30;1.70;;;24.50;51.80;;;;;;5019934;28;20096;-53
2021/09/02 01:58:08;;;;;;;2.30;1.60;;;24.50;51.80;;;;;;5013276;28;20036;-55
2021/09/02 02:00:35;;;;;;;2.20;1.50;;;24.40;51.80;;;;;;5023703;28;20034;-59
2021/09/02 02:03:00;;;;;;;2.50;1.50;;;24.40;51.80;;;;;;5026052;28;20133;-58
2021/09/02 02:05:26;;;;;;;2.10;1.50;;;24.40;51.80;;;;;;5025955;28;20136;-58
2021/09/02 02:07:52;;;;;;;1.88;1.40;;;24.40;51.90;;;;;;5020452;28;20029;-57
2021/09/02 02:10:26;;;;;;;2.10;1.48;;;24.40;51.90;;;;;;5024962;28;20072;-55
2021/09/02 02:12:52;;;;;;;2.67;1.45;;;24.40;51.90;;;;;;5006537;28;20038;-50
2021/09/02 02:15:17;;;;;;;2.25;1.50;;;24.40;51.90;;;;;;5023564;28;20026;-53
2021/09/02 02:17:43;;;;;;;2.20;1.23;;;24.40;51.90;;;;;;5009189;28;20036;-58
2021/09/02 02:20:10;;;;;;;2.17;1.40;;;24.40;51.90;;;;;;5024080;28;20124;-53
2021/09/02 02:22:36;;;;;;;1.80;1.30;;;24.30;51.90;;;;;;5023286;28;20052;-56
2021/09/02 02:25:03;;;;;;;2.35;1.70;;;24.30;52.00;;;;;;5014575;28;20124;-51
2021/09/02 02:27:29;;;;;;;3.22;1.60;;;24.30;52.00;;;;;;5023962;28;20408;-59
2021/09/02 02:29:54;;;;;;;2.08;1.33;;;24.30;52.00;;;;;;5019668;28;20104;-53
2021/09/02 02:32:20;;;;;;;2.50;1.60;;;24.30;52.00;;;;;;5023726;28;20097;-52
2021/09/02 02:34:45;;;;;;;2.33;1.50;;;24.30;52.10;;;;;;5025074;28;20045;-54
2021/09/02 02:37:11;;;;;;;1.73;1.30;;;24.30;52.10;;;;;;5023253;28;20022;-57
2021/09/02 02:39:40;;;;;;;1.83;1.40;;;24.30;52.10;;;;;;5017412;28;20030;-58
2021/09/02 02:42:07;;;;;;;2.00;1.30;;;24.20;52.00;;;;;;5013791;28;20037;-59
2021/09/02 02:44:33;;;;;;;2.00;1.13;;;24.20;52.10;;;;;;5009554;28;20033;-50
2021/09/02 02:46:59;;;;;;;1.88;1.38;;;24.20;52.10;;;;;;5022417;28;20117;-58
2021/09/02 02:49:25;;;;;;;2.13;1.40;;;24.20;52.10;;;;;;5010410;28;20109;-50
2021/09/02 02:51:52;;;;;;;2.03;1.30;;;24.20;52.10;;;;;;5026641;28;20462;-56
2021/09/02 02:54:17;;;;;;;2.00;1.60;;;24.20;52.10;;;;;;5026477;28;20036;-58
2021/09/02 02:56:43;;;;;;;1.77;1.30;;;24.20;52.10;;;;;;5025370;28;20104;-58
2021/09/02 02:59:09;;;;;;;2.05;1.50;;;24.10;52.10;;;;;;5023577;28;20528;-49
2021/09/02 03:01:34;;;;;;;2.03;1.42;;;24.10;52.10;;;;;;5025748;28;20064;-54
2021/09/02 03:04:00;;;;;;;1.88;1.35;;;24.10;52.60;;;;;;5027357;28;20037;-47
2021/09/02 03:06:26;;;;;;;1.92;1.30;;;24.10;52.20;;;;;;5028047;28;20099;-57
2021/09/02 03:08:51;;;;;;;2.00;1.50;;;24.10;52.20;;;;;;5018999;28;20037;-53
2021/09/02 03:11:17;;;;;;;1.88;1.27;;;24.10;52.20;;;;;;5019434;28;20072;-58
2021/09/02 03:13:43;;;;;;;2.63;1.45;;;24.10;52.20;;;;;;5024980;28;20064;-53
2021/09/02 03:16:08;;;;;;;2.20;1.50;;;24.10;52.30;;;;;;5028794;28;20029;-59
2021/09/02 03:18:35;;;;;;;2.03;1.42;;;24.10;52.30;;;;;;5024345;28;20036;-58
2021/09/02 03:21:00;;;;;;;1.63;1.20;;;24.10;52.30;;;;;;5019077;28;20030;-56
2021/09/02 03:23:26;;;;;;;2.10;1.40;;;24.10;52.30;;;;;;5020703;28;20084;-47
2021/09/02 03:25:52;;;;;;;1.48;1.17;;;24.00;52.20;;;;;;5021115;28;20025;-58
2021/09/02 03:28:17;;;;;;;2.05;1.30;;;24.10;52.30;;;;;;5027438;28;20456;-51
2021/09/02 03:30:43;;;;;;;2.00;1.30;;;24.10;52.30;;;;;;5023932;28;20065;-57
2021/09/02 03:33:09;;;;;;;1.80;1.38;;;24.00;52.30;;;;;;5020685;28;20026;-59
2021/09/02 03:35:34;;;;;;;1.70;1.30;;;24.00;52.30;;;;;;5026552;28;20091;-57
2021/09/02 03:38:00;;;;;;;1.70;1.20;;;24.00;52.30;;;;;;5025175;28;20396;-54
2021/09/02 03:40:26;;;;;;;2.17;1.40;;;24.00;52.40;;;;;;5026926;28;20083;-52
2021/09/02 03:42:51;;;;;;;1.70;1.20;;;24.00;52.40;;;;;;5019404;28;20057;-58
2021/09/02 03:45:17;;;;;;;1.92;1.30;;;24.00;52.40;;;;;;5013713;28;20087;-53
2021/09/02 03:47:47;;;;;;;2.00;1.40;;;24.00;52.40;;;;;;5013239;28;20037;-55
2021/09/02 03:50:14;;;;;;;1.92;1.30;;;24.00;52.40;;;;;;5010440;28;20065;-58
2021/09/02 03:52:40;;;;;;;1.65;1.20;;;23.90;52.30;;;;;;5020915;28;20037;-58
2021/09/02 03:55:06;;;;;;;2.20;1.50;;;23.90;52.30;;;;;;5020155;28;20036;-59
2021/09/02 03:57:31;;;;;;;1.80;1.30;;;23.90;52.40;;;;;;5022960;28;20442;-57
2021/09/02 03:59:57;;;;;;;1.90;1.30;;;23.90;52.30;;;;;;5027039;28;20505;-49
2021/09/02 04:02:22;;;;;;;2.30;1.20;;;23.90;52.40;;;;;;5019558;28;20061;-50
2021/09/02 04:04:48;;;;;;;1.50;1.10;;;23.90;52.40;;;;;;5027185;28;20084;-57
2021/09/02 04:07:14;;;;;;;1.60;1.20;;;23.90;52.40;;;;;;5031191;28;20104;-57
2021/09/02 04:09:39;;;;;;;1.67;1.13;;;23.90;52.40;;;;;;5022293;28;20047;-57
2021/09/02 04:12:05;;;;;;;2.20;1.35;;;23.90;52.40;;;;;;5027148;28;20052;-55
2021/09/02 04:14:31;;;;;;;1.40;1.17;;;23.90;52.40;;;;;;5024069;28;20021;-56
2021/09/02 04:16:56;;;;;;;1.75;1.30;;;23.90;52.40;;;;;;5024799;28;20466;-51
2021/09/02 04:19:25;;;;;;;1.75;1.27;;;23.90;52.40;;;;;;5018866;28;20057;-56
2021/09/02 04:21:51;;;;;;;2.13;1.43;;;23.80;52.90;;;;;;5027535;28;20048;-51
2021/09/02 04:24:17;;;;;;;1.60;1.20;;;23.80;52.40;;;;;;5020215;28;20021;-53
2021/09/02 04:26:43;;;;;;;1.60;1.10;;;23.80;52.40;;;;;;5020023;28;20421;-53
2021/09/02 04:29:09;;;;;;;1.92;1.30;;;23.80;52.50;;;;;;5021636;28;20030;-57
2021/09/02 04:31:35;;;;;;;1.90;1.30;;;23.80;52.50;;;;;;5020703;28;20033;-57
2021/09/02 04:34:00;;;;;;;1.73;1.20;;;23.80;52.50;;;;;;5011720;28;20026;-51
2021/09/02 04:36:26;;;;;;;1.70;1.23;;;23.80;52.50;;;;;;5013670;28;20026;-55
2021/09/02 04:38:52;;;;;;;1.95;1.40;;;23.80;52.50;;;;;;5015715;28;20145;-52
2021/09/02 04:41:17;;;;;;;1.90;1.30;;;23.80;52.50;;;;;;5023310;28;20358;-50
2021/09/02 04:43:43;;;;;;;1.60;1.20;;;23.70;52.50;;;;;;5008792;28;20545;-51
2021/09/02 04:46:11;;;;;;;1.60;1.20;;;23.80;52.60;;;;;;5023633;28;20026;-58
2021/09/02 04:48:37;;;;;;;1.65;1.25;;;23.70;52.50;;;;;;5019227;28;20084;-55
2021/09/02 04:51:04;;;;;;;1.90;1.40;;;23.70;52.50;;;;;;5012771;28;20110;-55
2021/09/02 04:53:29;;;;;;;1.80;1.20;;;23.70;52.60;;;;;;5020757;28;20465;-54
2021/09/02 04:55:55;;;;;;;1.40;1.20;;;23.70;52.60;;;;;;5014082;28;20022;-57
2021/09/02 04:58:20;;;;;;;1.80;1.15;;;23.70;52.60;;;;;;5026648;28;20029;-57
2021/09/02 05:00:46;;;;;;;1.42;1.00;;;23.70;52.60;;;;;;5020064;28;20080;-57
2021/09/02 05:03:12;;;;;;;1.83;1.35;;;23.70;52.60;;;;;;5018017;28;20131;-53
2021/09/02 05:05:38;;;;;;;1.80;1.20;;;23.70;52.60;;;;;;5016502;28;20605;-51
2021/09/02 05:08:04;;;;;;;1.77;1.30;;;23.70;52.60;;;;;;5018217;28;20022;-57
2021/09/02 05:10:30;;;;;;;1.85;1.23;;;23.60;52.60;;;;;;5019273;28;20033;-57
2021/09/02 05:12:56;;;;;;;2.17;1.40;;;23.70;52.60;;;;;;5025122;28;20510;-51
2021/09/02 05:15:22;;;;;;;1.88;1.30;;;23.60;52.60;;;;;;5021591;28;20026;-57
2021/09/02 05:17:48;;;;;;;1.52;1.20;;;23.60;52.60;;;;;;5020527;28;20120;-57
2021/09/02 05:20:15;;;;;;;1.70;1.23;;;23.60;52.60;;;;;;5016088;28;20025;-57
2021/09/02 05:22:42;;;;;;;1.75;1.20;;;23.60;52.60;;;;;;5018581;28;20033;-57
2021/09/02 05:25:09;;;;;;;1.58;1.20;;;23.60;52.70;;;;;;5024675;28;20029;-51
2021/09/02 05:27:34;;;;;;;1.40;1.17;;;23.60;52.70;;;;;;5020300;28;20458;-58
2021/09/02 05:30:05;;;;;;;1.80;1.30;;;23.60;52.70;;;;;;5024138;28;20044;-51
2021/09/02 05:32:31;;;;;;;2.17;1.40;;;23.60;52.80;;;;;;5014808;28;20071;-49
2021/09/02 05:34:57;;;;;;;1.67;1.20;;;23.60;52.70;;;;;;5015694;28;20120;-53
2021/09/02 05:37:22;;;;;;;1.60;1.20;;;23.60;52.80;;;;;;5015182;28;20095;-57
2021/09/02 05:39:48;;;;;;;1.52;1.20;;;23.60;52.80;;;;;;5014099;28;20145;-50
2021/09/02 05:42:14;;;;;;;2.08;1.40;;;23.50;52.70;;;;;;5019341;28;20116;-56
2021/09/02 05:44:39;;;;;;;1.85;1.40;;;23.60;52.80;;;;;;5013897;28;20359;-53
2021/09/02 05:47:05;;;;;;;1.88;1.30;;;23.60;52.70;;;;;;5011244;28;20041;-58
2021/09/02 05:49:31;;;;;;;2.05;1.45;;;23.50;52.70;;;;;;5012310;28;20037;-57
2021/09/02 05:51:57;;;;;;;1.92;1.35;;;23.50;52.70;;;;;;5017152;28;20088;-52
2021/09/02 05:54:22;;;;;;;2.00;1.40;;;23.50;52.70;;;;;;5016183;28;20022;-57
2021/09/02 05:56:48;;;;;;;1.20;0.95;;;23.50;52.70;;;;;;5008435;28;20411;-48
2021/09/02 05:59:14;;;;;;;1.88;1.30;;;23.50;52.70;;;;;;5021353;28;20067;-57
2021/09/02 06:01:39;;;;;;;1.60;1.20;;;23.50;52.90;;;;;;5024797;28;20026;-51
2021/09/02 06:04:05;;;;;;;1.75;1.30;;;23.50;52.80;;;;;;5024352;28;20221;-54
2021/09/02 06:06:31;;;;;;;1.55;1.10;;;23.60;52.80;;;;;;5015545;28;20444;-55
2021/09/02 06:08:57;;;;;;;1.33;1.10;;;23.60;52.80;;;;;;5011694;28;20126;-49
2021/09/02 06:11:22;;;;;;;1.65;1.15;;;23.60;52.70;;;;;;5015301;28;20692;-47
2021/09/02 06:13:48;;;;;;;1.70;1.30;;;23.60;52.70;;;;;;5014450;28;20110;-57
2021/09/02 06:16:13;;;;;;;1.85;1.40;;;23.70;52.70;;;;;;5014876;28;20040;-55
2021/09/02 06:18:39;;;;;;;1.92;1.30;;;23.70;52.60;;;;;;5033212;28;20485;-56
2021/09/02 06:21:05;;;;;;;1.42;1.10;;;23.70;52.60;;;;;;5026873;28;20025;-58
2021/09/02 06:23:30;;;;;;;1.90;1.30;;;23.70;52.60;;;;;;5025426;28;20052;-57
2021/09/02 06:25:56;;;;;;;1.60;1.10;;;23.80;52.50;;;;;;5023358;28;20029;-57
2021/09/02 06:28:21;;;;;;;1.60;1.23;;;23.80;52.50;;;;;;5030206;28;20029;-57
2021/09/02 06:30:48;;;;;;;1.70;1.33;;;23.80;52.50;;;;;;5043139;28;20052;-58
2021/09/02 06:33:14;;;;;;;1.63;1.13;;;23.80;52.50;;;;;;5025955;28;20013;-48
2021/09/02 06:35:40;;;;;;;1.73;1.23;;;23.80;52.40;;;;;;5028714;28;20331;-58
2021/09/02 06:38:06;;;;;;;1.98;1.40;;;23.90;52.50;;;;;;5028683;28;20056;-57
2021/09/02 06:40:32;;;;;;;1.90;1.30;;;23.90;52.30;;;;;;5031270;28;20484;-57
2021/09/02 06:42:58;;;;;;;2.05;1.40;;;23.90;52.30;;;;;;5019642;28;20111;-48
2021/09/02 06:45:24;;;;;;;1.75;1.23;;;23.90;52.30;;;;;;5021071;28;20022;-57
2021/09/02 06:47:49;;;;;;;1.85;1.20;;;24.00;52.60;;;;;;5019948;28;20047;-58
2021/09/02 06:50:15;;;;;;;1.83;1.23;;;24.00;52.20;;;;;;5027710;28;20432;-52
2021/09/02 06:52:42;;;;;;;1.88;1.40;;;24.00;52.20;;;;;;5029781;28;20087;-57
2021/09/02 06:55:09;;;;;;;2.00;1.20;;;24.10;52.20;;;;;;5021969;28;20045;-58
2021/09/02 06:57:35;;;;;;;1.70;1.27;;;24.10;52.20;;;;;;5019611;28;20033;-58
2021/09/02 07:00:02;;;;;;;1.88;1.17;;;24.10;52.10;;;;;;5012839;28;20037;-56
2021/09/02 07:02:27;;;;;;;1.70;1.20;;;24.10;52.20;;;;;;5021695;28;20025;-58
2021/09/02 07:04:53;;;;;;;2.35;1.23;;;24.10;52.10;;;;;;5026577;28;20079;-55
2021/09/02 07:07:19;;;;;;;1.55;1.17;;;24.10;52.00;;;;;;5028940;28;20086;-59
2021/09/02 07:09:44;;;;;;;2.40;1.40;;;24.10;52.10;;;;;;5023694;28;20037;-58
2021/09/02 07:12:10;;;;;;;1.90;1.30;;;24.20;52.00;;;;;;5023271;28;20044;-53
2021/09/02 07:14:36;;;;;;;1.83;1.33;;;24.20;51.90;;;;;;5028815;28;20025;-56
2021/09/02 07:17:01;;;;;;;1.73;1.30;;;24.20;52.40;;;;;;5018009;28;20037;-53
2021/09/02 07:19:27;;;;;;;1.85;1.45;;;24.30;51.90;;;;;;5021049;28;20038;-55
2021/09/02 07:21:53;;;;;;;2.00;1.23;;;24.30;51.90;;;;;;5028119;28;20110;-58
2021/09/02 07:24:19;;;;;;;1.45;1.20;;;24.30;51.80;;;;;;5030109;28;20060;-58
2021/09/02 07:26:45;;;;;;;1.90;1.35;;;24.30;51.80;;;;;;5032737;28;20060;-53
2021/09/02 07:29:10;;;;;;;2.22;1.55;;;24.30;51.70;;;;;;5027841;28;20079;-57
2021/09/02 07:31:37;;;;;;;1.70;1.17;;;24.30;51.70;;;;;;5024451;28;20028;-58
2021/09/02 07:34:03;;;;;;;1.60;1.10;;;24.30;51.70;;;;;;5015600;28;20053;-58
2021/09/02 07:36:29;;;;;;;2.00;1.52;;;24.40;51.70;;;;;;5028132;28;20033;-58
2021/09/02 07:38:55;;;;;;;2.83;1.50;;;24.40;51.80;;;;;;5020141;28;20519;-56
2021/09/02 07:41:20;;;;;;;1.33;1.00;;;24.40;51.60;;;;;;5025371;28;20040;-52
2021/09/02 07:43:46;;;;;;;1.73;1.30;;;24.40;51.60;;;;;;5020488;28;20052;-58
2021/09/02 07:46:12;;;;;;;1.48;1.10;;;24.40;51.50;;;;;;5018968;28;20125;-51
2021/09/02 07:48:38;;;;;;;1.92;1.30;;;24.50;51.60;;;;;;5015817;28;20041;-56
2021/09/02 07:51:03;;;;;;;2.38;1.30;;;24.50;51.50;;;;;;5023706;28;20038;-56
2021/09/02 07:53:30;;;;;;;1.90;1.20;;;24.50;51.50;;;;;;5026508;28;20371;-56
2021/09/02 07:55:56;;;;;;;2.15;1.50;;;24.50;51.40;;;;;;5034596;28;20481;-57
2021/09/02 07:58:22;;;;;;;1.70;1.30;;;24.50;51.40;;;;;;5029287;28;20037;-58
2021/09/02 08:00:48;;;;;;;1.73;1.20;;;24.60;51.40;;;;;;5030133;28;20034;-55
2021/09/02 08:03:14;;;;;;;1.80;1.30;;;24.50;51.30;;;;;;5023398;28;20037;-50
2021/09/02 08:05:40;;;;;;;1.50;1.20;;;24.60;51.30;;;;;;5027772;28;20096;-58
2021/09/02 08:08:06;;;;;;;1.77;1.30;;;24.60;51.30;;;;;;5014571;28;20030;-55
2021/09/02 08:10:32;;;;;;;2.00;1.50;;;24.60;51.20;;;;;;5027118;28;20464;-51
2021/09/02 08:12:58;;;;;;;1.77;1.27;;;24.60;51.20;;;;;;5025904;28;20083;-57
2021/09/02 08:15:25;;;;;;;1.90;1.20;;;24.70;51.20;;;;;;5025295;28;20692;-55
2021/09/02 08:17:51;;;;;;;1.85;1.38;;;24.60;51.10;;;;;;5023913;28;20022;-58
2021/09/02 08:20:18;;;;;;;2.60;1.33;;;24.60;51.10;;;;;;5019160;28;20116;-52
2021/09/02 08:22:45;;;;;;;2.03;1.60;;;24.70;51.20;;;;;;5039093;28;20091;-58
2021/09/02 08:25:12;;;;;;;2.00;1.30;;;24.70;51.10;;;;;;5028520;28;20137;-57
2021/09/02 08:27:39;;;;;;;2.05;1.35;;;24.70;51.10;;;;;;5027267;28;20029;-52
2021/09/02 08:30:06;;;;;;;1.65;1.27;;;24.70;51.30;;;;;;5033894;28;20523;-47
2021/09/02 08:32:31;;;;;;;1.90;1.33;;;24.70;51.10;;;;;;5025336;28;20500;-59
2021/09/02 08:34:57;;;;;;;1.90;1.30;;;24.70;51.10;;;;;;5015545;28;20022;-58
2021/09/02 08:37:23;;;;;;;1.70;1.20;;;24.70;51.10;;;;;;5015933;28;20591;-56
2021/09/02 08:39:50;;;;;;;1.60;1.25;;;24.70;51.10;;;;;;5015282;28;20026;-58
2021/09/02 08:42:16;;;;;;;2.00;1.50;;;24.70;51.10;;;;;;5016458;28;20041;-51
2021/09/02 08:44:43;;;;;;;1.70;1.20;;;24.70;51.10;;;;;;5019601;28;20117;-55
2021/09/02 08:47:10;;;;;;;2.53;1.40;;;24.80;51.10;;;;;;5024941;28;20025;-57
2021/09/02 08:49:36;;;;;;;1.70;1.23;;;24.80;51.10;;;;;;5026955;28;20025;-57
2021/09/02 08:52:02;;;;;;;1.98;1.40;;;24.80;51.10;;;;;;5023194;28;20048;-58
2021/09/02 08:54:32;;;;;;;3.22;1.40;;;24.80;51.10;;;;;;5027106;28;20065;-59
2021/09/02 08:56:57;;;;;;;1.63;1.20;;;24.80;51.00;;;;;;5016492;28;20030;-60
2021/09/02 08:59:23;;;;;;;1.80;1.40;;;24.80;51.10;;;;;;5019888;28;20033;-52
2021/09/02 09:01:49;;;;;;;1.90;1.42;;;24.80;51.10;;;;;;5016620;28;20428;-57
2021/09/02 09:04:16;;;;;;;1.80;1.30;;;24.80;51.00;;;;;;5014523;28;20469;-52
2021/09/02 09:06:42;;;;;;;2.05;1.40;;;24.80;51.00;;;;;;5014368;28;20057;-60
2021/09/02 09:09:12;;;;;;;2.25;1.55;;;24.80;51.00;;;;;;5020237;28;20069;-54
2021/09/02 09:11:47;;;;;;;1.40;1.10;;;24.80;51.00;;;;;;5010429;28;20048;-61
2021/09/02 09:14:17;;;;;;;1.45;1.30;;;24.80;51.00;;;;;;5012169;28;20053;-59
2021/09/02 09:16:45;;;;;;;1.45;1.10;;;24.90;51.10;;;;;;5012970;28;20057;-57
2021/09/02 09:19:54;;;;;;;1.77;1.30;;;24.90;51.10;;;;;;5016810;28;20053;-54
2021/09/02 09:22:21;;;;;;;1.98;1.27;;;24.90;51.10;;;;;;5036295;28;20535;-55
2021/09/02 09:24:49;;;;;;;1.70;1.30;;;24.90;51.10;;;;;;5027946;28;20033;-60
2021/09/02 09:27:17;;;;;;;1.90;1.35;;;24.90;51.00;;;;;;5041517;28;20603;-60
2021/09/02 09:29:42;;;;;;;1.88;1.35;;;24.90;51.00;;;;;;5038786;28;20068;-58
2021/09/02 09:32:17;;;;;;;1.85;1.20;;;24.90;51.00;;;;;;5027803;28;20034;-61
2021/09/02 09:34:50;;;;;;;1.55;1.20;;;24.90;51.10;;;;;;5025232;28;20029;-54
2021/09/02 09:37:17;;;;;;;1.80;1.30;;;24.90;51.10;;;;;;5030298;28;20029;-55
2021/09/02 09:39:44;;;;;;;1.65;1.20;;;24.90;51.00;;;;;;5026513;28;20032;-55
2021/09/02 09:42:10;;;;;;;2.03;1.30;;;24.90;51.10;;;;;;5031707;28;20082;-57
2021/09/02 09:44:39;;;;;;;1.80;1.30;;;24.90;50.90;;;;;;5029595;28;20025;-58
2021/09/02 09:47:18;;;;;;;1.53;1.20;;;25.00;51.00;;;;;;5020418;28;20055;-59
2021/09/02 09:49:54;;;;;;;1.20;1.00;;;25.00;51.00;;;;;;5032162;28;20410;-51
2021/09/02 09:52:26;;;;;;;1.70;1.30;;;25.00;50.90;;;;;;5017798;28;20045;-58
2021/09/02 09:55:09;;;;;;;1.70;1.25;;;25.00;51.00;;;;;;5018919;28;20100;-53
2021/09/02 09:57:36;;;;;;;1.90;1.20;;;25.00;50.90;;;;;;5021510;28;20389;-58
2021/09/02 10:00:15;;;;;;;2.08;1.40;;;25.00;50.90;;;;;;5021101;28;20033;-55
2021/09/02 10:02:50;;;;;;;1.98;1.30;;;25.00;50.90;;;;;;5024060;28;20550;-58
2021/09/02 10:05:17;;;;;;;1.95;1.45;;;25.00;51.00;;;;;;5024360;28;20057;-54
2021/09/02 10:07:45;;;;;;;2.08;1.38;;;25.10;50.90;;;;;;5015933;28;20047;-52
2021/09/02 10:10:14;;;;;;;1.60;1.30;;;25.10;50.90;;;;;;5024409;28;20026;-57
2021/09/02 10:12:47;;;;;;;1.65;1.30;;;25.10;50.90;;;;;;5032063;28;20121;-57
2021/09/02 10:15:15;;;;;;;1.98;1.45;;;25.10;50.90;;;;;;5022522;28;20084;-56
2021/09/02 10:17:42;;;;;;;1.92;1.30;;;25.10;50.90;;;;;;5017249;28;20036;-55
2021/09/02 10:20:22;;;;;;;1.95;1.50;;;25.10;50.90;;;;;;5014357;28;20088;-59
2021/09/02 10:22:49;;;;;;;2.10;1.35;;;25.10;50.90;;;;;;5022699;28;20104;-55
2021/09/02 10:25:33;;;;;;;1.65;1.38;;;25.10;50.80;;;;;;5020227;28;20466;-56
2021/09/02 10:28:04;;;;;;;2.00;1.40;;;25.10;50.90;;;;;;5021196;28;20040;-56
2021/09/02 10:30:32;;;;;;;2.20;1.70;;;25.10;50.80;;;;;;5027341;28;20187;-56
2021/09/02 10:32:59;;;;;;;1.40;1.10;;;25.10;50.90;;;;;;5014782;28;20030;-59
2021/09/02 10:35:24;;;;;;;1.70;1.20;;;25.20;50.90;;;;;;5020748;28;20100;-58
2021/09/02 10:37:51;;;;;;;1.85;1.40;;;25.20;50.90;;;;;;5025058;28;20132;-59
2021/09/02 10:40:17;;;;;;;1.90;1.40;;;25.20;50.80;;;;;;5027145;28;20033;-59
2021/09/02 10:42:44;;;;;;;2.05;1.45;;;25.20;50.80;;;;;;5022258;28;20046;-54
2021/09/02 10:45:41;;;;;;;1.98;1.40;;;25.20;50.90;;;;;;5020976;28;20108;-54
2021/09/02 10:48:14;;;;;;;1.58;1.20;;;25.20;50.80;;;;;;5004701;28;20046;-53
2021/09/02 10:50:42;;;;;;;2.00;1.50;;;25.20;50.90;;;;;;5016059;28;20048;-60
2021/09/02 10:53:14;;;;;;;2.03;1.35;;;25.20;50.80;;;;;;5016017;28;20040;-55
2021/09/02 10:55:48;;;;;;;1.90;1.20;;;25.20;50.80;;;;;;5025230;28;20044;-59
2021/09/02 10:58:45;;;;;;;1.67;1.17;;;25.20;50.90;;;;;;5024855;28;20880;-60
2021/09/02 11:01:23;;;;;;;2.03;1.27;;;25.20;50.90;;;;;;5022523;28;20072;-59
2021/09/02 11:03:50;;;;;;;2.15;1.40;;;25.20;50.90;;;;;;5027440;28;20119;-58
2021/09/02 11:06:16;;;;;;;2.08;1.40;;;25.20;50.90;;;;;;5035093;28;20061;-59
2021/09/02 11:08:42;;;;;;;2.03;1.40;;;25.20;50.90;;;;;;5023318;28;20500;-61
2021/09/02 11:11:11;;;;;;;2.05;1.48;;;25.20;50.90;;;;;;5033750;28;20144;-59
2021/09/02 11:13:37;;;;;;;1.90;1.38;;;25.20;50.80;;;;;;5049299;28;20025;-53
2021/09/02 11:16:16;;;;;;;1.50;1.20;;;25.30;50.90;;;;;;5023297;28;20045;-60
2021/09/02 11:18:46;;;;;;;1.90;1.40;;;25.30;51.50;;;;;;5023040;28;20057;-56
2021/09/02 11:21:17;;;;;;;2.05;1.38;;;25.30;50.90;;;;;;5018481;28;20478;-58
2021/09/02 11:23:45;;;;;;;1.92;1.50;;;25.30;50.90;;;;;;5015884;28;20021;-60
2021/09/02 11:26:30;;;;;;;2.13;1.30;;;25.30;50.90;;;;;;5024689;28;20040;-57
2021/09/02 11:28:56;;;;;;;1.90;1.33;;;25.30;50.90;;;;;;5028382;28;20025;-59
2021/09/02 11:31:21;;;;;;;2.63;1.60;;;25.30;50.90;;;;;;5028759;28;20025;-53
2021/09/02 11:33:49;;;;;;;2.03;1.40;;;25.30;50.90;;;;;;5024208;28;20442;-55
2021/09/02 11:36:15;;;;;;;1.75;1.30;;;25.30;51.40;;;;;;5025325;28;20041;-50
2021/09/02 11:38:42;;;;;;;1.88;1.42;;;25.30;50.90;;;;;;5021891;28;20108;-54
2021/09/02 11:41:09;;;;;;;1.98;1.52;;;25.40;50.90;;;;;;5027424;28;20101;-55
2021/09/02 11:43:38;;;;;;;1.88;1.33;;;25.40;50.90;;;;;;5022929;28;20041;-60
2021/09/02 11:46:06;;;;;;;2.47;1.52;;;25.40;50.90;;;;;;5020573;28;20033;-60
2021/09/02 11:48:51;;;;;;;2.00;1.40;;;25.40;50.90;;;;;;5020001;28;20077;-59
2021/09/02 11:51:31;;;;;;;2.15;1.48;;;25.40;50.80;;;;;;5024734;28;20065;-54
2021/09/02 11:54:11;;;;;;;1.42;1.20;;;25.40;50.90;;;;;;5029945;28;20624;-56
2021/09/02 11:56:39;;;;;;;1.70;1.30;;;25.40;50.90;;;;;;5027625;28;20035;-55
2021/09/02 11:59:07;;;;;;;2.13;1.30;;;25.40;50.90;;;;;;5025648;28;20100;-60
2021/09/02 12:01:33;;;;;;;1.80;1.30;;;25.40;50.90;;;;;;5027377;28;20087;-56
2021/09/02 12:03:59;;;;;;;2.13;1.52;;;25.40;50.90;;;;;;5040159;28;20037;-56
2021/09/02 12:06:32;;;;;;;1.77;1.27;;;25.40;50.90;;;;;;5014553;28;20629;-58
2021/09/02 12:09:03;;;;;;;1.60;1.27;;;25.50;51.00;;;;;;5012771;28;20042;-59
2021/09/02 12:11:29;;;;;;;3.15;1.50;;;25.50;50.90;;;;;;5028148;28;20033;-60
2021/09/02 12:13:57;;;;;;;1.67;1.27;;;25.50;51.00;;;;;;5032154;28;20033;-60
2021/09/02 12:16:31;;;;;;;1.88;1.30;;;25.50;51.00;;;;;;5023675;28;20421;-60
2021/09/02 12:18:59;;;;;;;1.70;1.30;;;25.50;50.90;;;;;;5015448;28;20036;-60
2021/09/02 12:21:29;;;;;;;1.92;1.30;;;25.50;50.90;;;;;;5028324;28;20182;-57
2021/09/02 12:23:59;;;;;;;1.60;1.27;;;25.50;50.90;;;;;;5025240;28;20106;-55
2021/09/02 12:26:42;;;;;;;2.25;1.35;;;25.50;50.90;;;;;;5030804;28;20035;-55
2021/09/02 12:29:13;;;;;;;1.80;1.27;;;25.50;50.90;;;;;;5024826;28;20033;-59
2021/09/02 12:31:38;;;;;;;2.10;1.42;;;25.60;51.00;;;;;;5027254;28;20021;-57
2021/09/02 12:34:08;;;;;;;1.80;1.30;;;25.60;51.00;;;;;;5024790;28;20040;-54
2021/09/02 12:36:42;;;;;;;1.48;1.00;;;25.60;50.90;;;;;;5031352;28;20052;-59
2021/09/02 12:39:20;;;;;;;1.95;1.35;;;25.60;50.90;;;;;;5026847;28;20669;-61
2021/09/02 12:41:51;;;;;;;1.83;1.33;;;25.70;51.00;;;;;;5034236;28;20112;-59
2021/09/02 12:44:39;;;;;;;1.80;1.30;;;25.60;51.50;;;;;;5032526;28;20358;-58
2021/09/02 12:47:19;;;;;;;2.30;1.40;;;25.70;51.00;;;;;;5007060;28;20033;-59
2021/09/02 12:49:50;;;;;;;1.60;1.20;;;25.70;50.90;;;;;;5023675;28;20029;-60